Portage, Wisconsin
Current Conditions -  °F | °C
As of 1:10 AM on Friday 19 Dec 2014 (Local Time) from KDLL Reporting Station
Overcast Overcast  
Wind Chill: 25°   Ceiling: 1700
Heat Index: 25°   Visibility: 10mi
Dew Point: 20°   Wind: 0mph
Humidity: 83%   Direction: NA
Pressure: 30.26"   Gusts: NA
Location:  43.54°N, 89.46°W
Report Text: KDLL 190710Z AUTO 00000KT 10SM OVC017 M04/M06 A3026 RMK AO2 T10401065
Loading
Personal Weather Stations






























Interactive Weather Map New forecast layout! Learn more

10-Day Weather Forecast

Advertisements
Track Severe Weather on mobile